sensor_id;sensor_type;location;lat;lon;timestamp;pressure;altitude;pressure_sealevel;temperature;humidity
14612;BME280;7392;52.078;11.650;2023-03-14T00:01:13;98437.75;;;9.93;100.00
14612;BME280;7392;52.078;11.650;2023-03-14T00:03:41;98439.53;;;9.92;100.00
14612;BME280;7392;52.078;11.650;2023-03-14T00:06:10;98440.41;;;9.93;100.00
14612;BME280;7392;52.078;11.650;2023-03-14T00:08:39;98443.09;;;9.91;100.00
14612;BME280;7392;52.078;11.650;2023-03-14T00:11:08;98450.19;;;9.91;100.00
14612;BME280;7392;52.078;11.650;2023-03-14T00:13:36;98449.31;;;9.90;100.00
14612;BME280;7392;52.078;11.650;2023-03-14T00:16:06;98435.16;;;9.91;100.00
14612;BME280;7392;52.078;11.650;2023-03-14T00:18:36;98438.66;;;9.92;100.00
14612;BME280;7392;52.078;11.650;2023-03-14T00:21:04;98441.31;;;9.92;100.00
14612;BME280;7392;52.078;11.650;2023-03-14T00:23:34;98443.84;;;9.95;100.00
14612;BME280;7392;52.078;11.650;2023-03-14T00:26:03;98429.00;;;9.91;100.00
14612;BME280;7392;52.078;11.650;2023-03-14T00:28:32;98411.34;;;9.90;100.00
14612;BME280;7392;52.078;11.650;2023-03-14T00:31:02;98408.69;;;9.90;100.00
14612;BME280;7392;52.078;11.650;2023-03-14T00:33:30;98411.44;;;9.87;100.00
14612;BME280;7392;52.078;11.650;2023-03-14T00:36:00;98414.03;;;9.88;100.00
14612;BME280;7392;52.078;11.650;2023-03-14T00:38:30;98414.97;;;9.87;100.00
14612;BME280;7392;52.078;11.650;2023-03-14T00:40:58;98403.50;;;9.87;100.00
14612;BME280;7392;52.078;11.650;2023-03-14T00:43:26;98423.00;;;9.86;100.00
14612;BME280;7392;52.078;11.650;2023-03-14T00:45:54;98436.41;;;9.81;100.00
14612;BME280;7392;52.078;11.650;2023-03-14T00:48:21;98439.16;;;9.78;100.00
14612;BME280;7392;52.078;11.650;2023-03-14T00:50:49;98440.25;;;9.72;100.00
14612;BME280;7392;52.078;11.650;2023-03-14T00:53:18;98456.25;;;9.69;100.00
14612;BME280;7392;52.078;11.650;2023-03-14T00:55:46;98480.09;;;9.69;100.00
14612;BME280;7392;52.078;11.650;2023-03-14T00:58:15;98483.59;;;9.70;100.00
14612;BME280;7392;52.078;11.650;2023-03-14T01:00:43;98483.50;;;9.73;100.00
14612;BME280;7392;52.078;11.650;2023-03-14T01:03:13;98489.63;;;9.75;100.00
14612;BME280;7392;52.078;11.650;2023-03-14T01:05:41;98491.41;;;9.74;100.00
14612;BME280;7392;52.078;11.650;2023-03-14T01:08:09;98488.75;;;9.74;100.00
14612;BME280;7392;52.078;11.650;2023-03-14T01:10:40;98491.47;;;9.73;100.00
14612;BME280;7392;52.078;11.650;2023-03-14T01:13:08;98493.25;;;9.72;100.00
14612;BME280;7392;52.078;11.650;2023-03-14T01:15:37;98486.19;;;9.71;100.00
14612;BME280;7392;52.078;11.650;2023-03-14T01:18:04;98503.03;;;9.70;100.00
14612;BME280;7392;52.078;11.650;2023-03-14T01:20:32;98506.66;;;9.68;100.00
14612;BME280;7392;52.078;11.650;2023-03-14T01:23:00;98494.38;;;9.65;100.00
14612;BME280;7392;52.078;11.650;2023-03-14T01:25:27;98490.97;;;9.62;100.00
14612;BME280;7392;52.078;11.650;2023-03-14T01:27:57;98491.97;;;9.58;100.00
14612;BME280;7392;52.078;11.650;2023-03-14T01:30:27;98507.97;;;9.54;100.00
14612;BME280;7392;52.078;11.650;2023-03-14T01:32:55;98500.06;;;9.53;100.00
14612;BME280;7392;52.078;11.650;2023-03-14T01:35:22;98507.16;;;9.52;100.00
14612;BME280;7392;52.078;11.650;2023-03-14T01:37:50;98499.25;;;9.51;100.00
14612;BME280;7392;52.078;11.650;2023-03-14T01:40:21;98485.06;;;9.53;100.00
14612;BME280;7392;52.078;11.650;2023-03-14T01:42:54;98484.13;;;9.54;100.00
14612;BME280;7392;52.078;11.650;2023-03-14T01:48:33;98476.03;;;9.59;100.00
14612;BME280;7392;52.078;11.650;2023-03-14T01:51:05;98480.44;;;9.60;100.00
14612;BME280;7392;52.078;11.650;2023-03-14T01:53:34;98484.78;;;9.61;100.00
14612;BME280;7392;52.078;11.650;2023-03-14T01:56:02;98470.69;;;9.61;100.00
14612;BME280;7392;52.078;11.650;2023-03-14T01:58:31;98463.53;;;9.63;100.00
14612;BME280;7392;52.078;11.650;2023-03-14T02:01:02;98447.69;;;9.61;100.00
14612;BME280;7392;52.078;11.650;2023-03-14T02:03:36;98449.44;;;9.62;100.00
14612;BME280;7392;52.078;11.650;2023-03-14T02:06:07;98443.19;;;9.63;100.00
14612;BME280;7392;52.078;11.650;2023-03-14T02:08:39;98437.00;;;9.64;100.00
14612;BME280;7392;52.078;11.650;2023-03-14T02:11:14;98424.59;;;9.65;100.00
14612;BME280;7392;52.078;11.650;2023-03-14T02:13:48;98416.69;;;9.63;100.00
14612;BME280;7392;52.078;11.650;2023-03-14T02:16:34;98409.72;;;9.61;100.00
14612;BME280;7392;52.078;11.650;2023-03-14T02:19:28;98403.63;;;9.59;100.00
14612;BME280;7392;52.078;11.650;2023-03-14T02:22:10;98412.59;;;9.54;100.00
14612;BME280;7392;52.078;11.650;2023-03-14T02:24:51;98417.03;;;9.54;100.00
14612;BME280;7392;52.078;11.650;2023-03-14T02:27:26;98403.88;;;9.51;100.00
14612;BME280;7392;52.078;11.650;2023-03-14T02:29:56;98401.28;;;9.49;100.00
14612;BME280;7392;52.078;11.650;2023-03-14T02:32:27;98411.03;;;9.49;100.00
14612;BME280;7392;52.078;11.650;2023-03-14T02:34:59;98408.47;;;9.46;100.00
14612;BME280;7392;52.078;11.650;2023-03-14T02:37:32;98414.75;;;9.43;100.00
14612;BME280;7392;52.078;11.650;2023-03-14T02:40:00;98418.31;;;9.42;100.00
14612;BME280;7392;52.078;11.650;2023-03-14T02:42:33;98404.34;;;9.37;100.00
14612;BME280;7392;52.078;11.650;2023-03-14T02:48:09;98390.41;;;9.32;100.00
14612;BME280;7392;52.078;11.650;2023-03-14T02:50:38;98397.59;;;9.28;100.00
14612;BME280;7392;52.078;11.650;2023-03-14T02:53:06;98395.94;;;9.26;100.00
14612;BME280;7392;52.078;11.650;2023-03-14T02:55:34;98398.72;;;9.21;100.00
14612;BME280;7392;52.078;11.650;2023-03-14T02:58:09;98390.97;;;9.15;100.00
14612;BME280;7392;52.078;11.650;2023-03-14T03:00:37;98381.41;;;9.11;100.00
14612;BME280;7392;52.078;11.650;2023-03-14T03:03:07;98379.78;;;9.07;100.00
14612;BME280;7392;52.078;11.650;2023-03-14T03:05:35;98381.63;;;9.05;100.00
14612;BME280;7392;52.078;11.650;2023-03-14T03:08:03;98377.31;;;9.02;100.00
14612;BME280;7392;52.078;11.650;2023-03-14T03:10:32;98379.06;;;9.02;100.00
14612;BME280;7392;52.078;11.650;2023-03-14T03:13:00;98383.53;;;8.99;100.00
14612;BME280;7392;52.078;11.650;2023-03-14T03:15:29;98375.69;;;8.96;100.00
14612;BME280;7392;52.078;11.650;2023-03-14T03:17:57;98374.94;;;8.93;100.00
14612;BME280;7392;52.078;11.650;2023-03-14T03:20:25;98366.94;;;8.94;100.00
14612;BME280;7392;52.078;11.650;2023-03-14T03:22:52;98365.25;;;8.93;100.00
14612;BME280;7392;52.078;11.650;2023-03-14T03:25:20;98370.59;;;8.92;100.00
14612;BME280;7392;52.078;11.650;2023-03-14T03:27:49;98367.97;;;8.90;100.00
14612;BME280;7392;52.078;11.650;2023-03-14T03:30:17;98383.09;;;8.87;100.00
14612;BME280;7392;52.078;11.650;2023-03-14T03:32:47;98381.44;;;8.83;100.00
14612;BME280;7392;52.078;11.650;2023-03-14T03:35:15;98381.63;;;8.78;100.00
14612;BME280;7392;52.078;11.650;2023-03-14T03:37:43;98380.81;;;8.74;100.00
14612;BME280;7392;52.078;11.650;2023-03-14T03:40:12;98373.88;;;8.72;100.00
14612;BME280;7392;52.078;11.650;2023-03-14T03:42:40;98369.47;;;8.71;100.00
14612;BME280;7392;52.078;11.650;2023-03-14T03:45:09;98366.94;;;8.68;100.00
14612;BME280;7392;52.078;11.650;2023-03-14T03:47:48;98352.78;;;8.69;100.00
14612;BME280;7392;52.078;11.650;2023-03-14T03:50:16;98355.44;;;8.69;100.00
14612;BME280;7392;52.078;11.650;2023-03-14T03:52:43;98350.09;;;8.70;100.00
14612;BME280;7392;52.078;11.650;2023-03-14T03:55:11;98351.84;;;8.71;100.00
14612;BME280;7392;52.078;11.650;2023-03-14T03:57:39;98358.88;;;8.71;100.00
14612;BME280;7392;52.078;11.650;2023-03-14T04:00:08;98357.13;;;8.71;100.00
14612;BME280;7392;52.078;11.650;2023-03-14T04:02:41;98359.78;;;8.71;100.00
14612;BME280;7392;52.078;11.650;2023-03-14T04:05:14;98358.84;;;8.72;100.00
14612;BME280;7392;52.078;11.650;2023-03-14T04:07:54;98373.78;;;8.75;100.00
14612;BME280;7392;52.078;11.650;2023-03-14T04:10:25;98370.25;;;8.74;100.00
14612;BME280;7392;52.078;11.650;2023-03-14T04:13:22;98383.38;;;8.77;100.00
14612;BME280;7392;52.078;11.650;2023-03-14T04:15:53;98362.09;;;8.80;100.00
14612;BME280;7392;52.078;11.650;2023-03-14T04:18:24;98368.16;;;8.84;100.00
14612;BME280;7392;52.078;11.650;2023-03-14T04:20:54;98375.22;;;8.85;100.00
14612;BME280;7392;52.078;11.650;2023-03-14T04:23:28;98384.84;;;8.86;100.00
14612;BME280;7392;52.078;11.650;2023-03-14T04:25:56;98383.94;;;8.87;100.00
14612;BME280;7392;52.078;11.650;2023-03-14T04:28:24;98377.59;;;8.93;100.00
14612;BME280;7392;52.078;11.650;2023-03-14T04:30:52;98372.09;;;8.99;100.00
14612;BME280;7392;52.078;11.650;2023-03-14T04:33:22;98362.13;;;9.07;100.00
14612;BME280;7392;52.078;11.650;2023-03-14T04:35:54;98358.28;;;9.16;100.00
14612;BME280;7392;52.078;11.650;2023-03-14T04:38:23;98360.78;;;9.21;100.00
14612;BME280;7392;52.078;11.650;2023-03-14T04:40:52;98338.69;;;9.22;100.00
14612;BME280;7392;52.078;11.650;2023-03-14T04:43:22;98335.97;;;9.23;100.00
14612;BME280;7392;52.078;11.650;2023-03-14T04:45:54;98341.31;;;9.22;100.00
14612;BME280;7392;52.078;11.650;2023-03-14T04:48:23;98337.88;;;9.20;100.00
14612;BME280;7392;52.078;11.650;2023-03-14T04:50:51;98352.00;;;9.18;100.00
14612;BME280;7392;52.078;11.650;2023-03-14T04:53:21;98348.50;;;9.18;100.00
14612;BME280;7392;52.078;11.650;2023-03-14T04:55:53;98333.53;;;9.17;100.00
14612;BME280;7392;52.078;11.650;2023-03-14T04:58:23;98344.13;;;9.17;100.00
14612;BME280;7392;52.078;11.650;2023-03-14T05:00:52;98322.06;;;9.16;100.00
14612;BME280;7392;52.078;11.650;2023-03-14T05:03:34;98331.88;;;9.14;100.00
14612;BME280;7392;52.078;11.650;2023-03-14T05:06:33;98323.97;;;9.13;100.00
14612;BME280;7392;52.078;11.650;2023-03-14T05:09:03;98325.75;;;9.12;100.00
14612;BME280;7392;52.078;11.650;2023-03-14T05:11:49;98315.16;;;9.12;100.00
14612;BME280;7392;52.078;11.650;2023-03-14T05:14:29;98319.59;;;9.12;100.00
14612;BME280;7392;52.078;11.650;2023-03-14T05:17:16;98322.97;;;9.15;100.00
14612;BME280;7392;52.078;11.650;2023-03-14T05:19:58;98307.84;;;9.21;100.00
14612;BME280;7392;52.078;11.650;2023-03-14T05:22:34;98313.03;;;9.22;100.00
14612;BME280;7392;52.078;11.650;2023-03-14T05:25:04;98308.63;;;9.23;100.00
14612;BME280;7392;52.078;11.650;2023-03-14T05:27:53;98308.63;;;9.23;100.00
14612;BME280;7392;52.078;11.650;2023-03-14T05:30:37;98308.75;;;9.20;100.00
14612;BME280;7392;52.078;11.650;2023-03-14T05:33:19;98304.41;;;9.17;100.00
14612;BME280;7392;52.078;11.650;2023-03-14T05:35:57;98301.00;;;9.13;100.00
14612;BME280;7392;52.078;11.650;2023-03-14T05:38:43;98306.34;;;9.12;100.00
14612;BME280;7392;52.078;11.650;2023-03-14T05:41:31;98298.44;;;9.10;100.00
14612;BME280;7392;52.078;11.650;2023-03-14T05:44:17;98293.28;;;9.07;100.00
14612;BME280;7392;52.078;11.650;2023-03-14T05:46:54;98300.47;;;9.04;100.00
14612;BME280;7392;52.078;11.650;2023-03-14T05:49:28;98302.28;;;9.02;100.00
14612;BME280;7392;52.078;11.650;2023-03-14T05:52:16;98291.81;;;8.98;100.00
14612;BME280;7392;52.078;11.650;2023-03-14T05:54:56;98296.28;;;8.96;100.00
14612;BME280;7392;52.078;11.650;2023-03-14T05:57:43;98295.47;;;8.94;100.00
14612;BME280;7392;52.078;11.650;2023-03-14T06:00:26;98301.72;;;8.93;100.00
14612;BME280;7392;52.078;11.650;2023-03-14T06:03:11;98298.22;;;8.91;100.00
14612;BME280;7392;52.078;11.650;2023-03-14T06:05:43;98297.38;;;8.91;100.00
14612;BME280;7392;52.078;11.650;2023-03-14T06:08:11;98294.72;;;8.91;100.00
14612;BME280;7392;52.078;11.650;2023-03-14T06:10:39;98298.28;;;8.90;100.00
14612;BME280;7392;52.078;11.650;2023-03-14T06:13:09;98286.88;;;8.88;100.00
14612;BME280;7392;52.078;11.650;2023-03-14T06:15:37;98293.97;;;8.87;100.00
14612;BME280;7392;52.078;11.650;2023-03-14T06:18:04;98286.06;;;8.86;100.00
14612;BME280;7392;52.078;11.650;2023-03-14T06:20:35;98297.56;;;8.85;100.00
14612;BME280;7392;52.078;11.650;2023-03-14T06:23:08;98295.81;;;8.85;100.00
14612;BME280;7392;52.078;11.650;2023-03-14T06:25:36;98299.31;;;8.86;100.00
14612;BME280;7392;52.078;11.650;2023-03-14T06:28:04;98302.81;;;8.86;100.00
14612;BME280;7392;52.078;11.650;2023-03-14T06:30:33;98303.56;;;8.90;100.00
14612;BME280;7392;52.078;11.650;2023-03-14T06:33:01;98309.66;;;8.93;100.00
14612;BME280;7392;52.078;11.650;2023-03-14T06:35:29;98309.53;;;8.96;100.00
14612;BME280;7392;52.078;11.650;2023-03-14T06:37:57;98302.34;;;9.00;100.00
14612;BME280;7392;52.078;11.650;2023-03-14T06:40:25;98305.81;;;9.02;100.00
14612;BME280;7392;52.078;11.650;2023-03-14T06:42:58;98317.13;;;9.07;100.00
14612;BME280;7392;52.078;11.650;2023-03-14T06:45:27;98323.97;;;9.13;100.00
14612;BME280;7392;52.078;11.650;2023-03-14T06:47:58;98327.38;;;9.16;100.00
14612;BME280;7392;52.078;11.650;2023-03-14T06:50:35;98321.00;;;9.22;100.00
14612;BME280;7392;52.078;11.650;2023-03-14T06:53:03;98321.69;;;9.27;100.00
14612;BME280;7392;52.078;11.650;2023-03-14T06:55:33;98321.53;;;9.32;100.00
14612;BME280;7392;52.078;11.650;2023-03-14T06:58:01;98330.03;;;9.42;100.00
14612;BME280;7392;52.078;11.650;2023-03-14T07:00:31;98341.34;;;9.47;100.00
14612;BME280;7392;52.078;11.650;2023-03-14T07:03:00;98340.25;;;9.52;100.00
14612;BME280;7392;52.078;11.650;2023-03-14T07:05:32;98342.72;;;9.57;100.00
14612;BME280;7392;52.078;11.650;2023-03-14T07:08:00;98337.28;;;9.62;99.40
14612;BME280;7392;52.078;11.650;2023-03-14T07:10:27;98352.94;;;9.68;98.45
14612;BME280;7392;52.078;11.650;2023-03-14T07:12:55;98367.00;;;9.70;98.29
14612;BME280;7392;52.078;11.650;2023-03-14T07:15:26;98350.19;;;9.71;98.34
14612;BME280;7392;52.078;11.650;2023-03-14T07:17:58;98354.50;;;9.73;98.67
14612;BME280;7392;52.078;11.650;2023-03-14T07:20:28;98348.22;;;9.76;99.03
14612;BME280;7392;52.078;11.650;2023-03-14T07:22:56;98350.78;;;9.79;98.84
14612;BME280;7392;52.078;11.650;2023-03-14T07:25:34;98346.28;;;9.81;99.40
14612;BME280;7392;52.078;11.650;2023-03-14T07:28:02;98346.22;;;9.83;99.47
14612;BME280;7392;52.078;11.650;2023-03-14T07:30:30;98332.97;;;9.83;99.68
14612;BME280;7392;52.078;11.650;2023-03-14T07:33:00;98332.09;;;9.82;99.64
14612;BME280;7392;52.078;11.650;2023-03-14T07:35:30;98328.56;;;9.82;99.61
14612;BME280;7392;52.078;11.650;2023-03-14T07:37:57;98330.31;;;9.83;99.92
14612;BME280;7392;52.078;11.650;2023-03-14T07:40:32;98331.97;;;9.85;99.98
14612;BME280;7392;52.078;11.650;2023-03-14T07:44:51;98315.72;;;9.95;99.84
14612;BME280;7392;52.078;11.650;2023-03-14T07:47:19;98318.22;;;9.99;99.26
14612;BME280;7392;52.078;11.650;2023-03-14T07:49:46;98314.47;;;10.05;99.10
14612;BME280;7392;52.078;11.650;2023-03-14T07:52:14;98306.19;;;10.13;98.41
14612;BME280;7392;52.078;11.650;2023-03-14T07:54:41;98314.66;;;10.22;97.48
14612;BME280;7392;52.078;11.650;2023-03-14T07:57:09;98316.97;;;10.32;95.77
14612;BME280;7392;52.078;11.650;2023-03-14T07:59:37;98313.13;;;10.40;94.72
14612;BME280;7392;52.078;11.650;2023-03-14T08:02:09;98317.13;;;10.51;94.23
14612;BME280;7392;52.078;11.650;2023-03-14T08:04:38;98319.41;;;10.60;93.08
14612;BME280;7392;52.078;11.650;2023-03-14T08:07:06;98326.13;;;10.69;92.67
14612;BME280;7392;52.078;11.650;2023-03-14T08:09:33;98312.66;;;10.73;91.37
14612;BME280;7392;52.078;11.650;2023-03-14T08:12:01;98321.13;;;10.83;91.74
14612;BME280;7392;52.078;11.650;2023-03-14T08:14:29;98312.81;;;10.91;91.24
14612;BME280;7392;52.078;11.650;2023-03-14T08:16:57;98319.53;;;10.99;91.14
14612;BME280;7392;52.078;11.650;2023-03-14T08:19:26;98306.94;;;11.04;89.77
14612;BME280;7392;52.078;11.650;2023-03-14T08:21:54;98309.66;;;11.03;88.39
14612;BME280;7392;52.078;11.650;2023-03-14T08:24:21;98316.69;;;11.04;88.61
14612;BME280;7392;52.078;11.650;2023-03-14T08:26:49;98307.88;;;11.03;87.68
14612;BME280;7392;52.078;11.650;2023-03-14T08:29:16;98301.69;;;11.03;88.25
14612;BME280;7392;52.078;11.650;2023-03-14T08:31:44;98295.50;;;11.02;88.57
14612;BME280;7392;52.078;11.650;2023-03-14T08:34:12;98306.13;;;11.02;88.58
14612;BME280;7392;52.078;11.650;2023-03-14T08:36:41;98295.38;;;11.06;88.33
14612;BME280;7392;52.078;11.650;2023-03-14T08:39:08;98294.19;;;11.13;88.14
14612;BME280;7392;52.078;11.650;2023-03-14T08:41:36;98293.13;;;11.17;87.16
14612;BME280;7392;52.078;11.650;2023-03-14T08:44:07;98287.53;;;11.23;87.49
14612;BME280;7392;52.078;11.650;2023-03-14T08:46:35;98297.75;;;11.32;87.31
14612;BME280;7392;52.078;11.650;2023-03-14T08:49:03;98285.97;;;11.39;86.60
14612;BME280;7392;52.078;11.650;2023-03-14T08:51:30;98284.69;;;11.48;86.92
14612;BME280;7392;52.078;11.650;2023-03-14T08:53:59;98272.91;;;11.54;85.99
14612;BME280;7392;52.078;11.650;2023-03-14T08:56:27;98272.63;;;11.60;85.47
14612;BME280;7392;52.078;11.650;2023-03-14T08:58:55;98272.41;;;11.65;84.08
14612;BME280;7392;52.078;11.650;2023-03-14T09:01:22;98271.94;;;11.75;82.85
14612;BME280;7392;52.078;11.650;2023-03-14T09:03:52;98277.94;;;12.00;82.28
14612;BME280;7392;52.078;11.650;2023-03-14T09:06:20;98282.78;;;12.28;82.36
14612;BME280;7392;52.078;11.650;2023-03-14T09:08:48;98285.53;;;12.45;82.59
14612;BME280;7392;52.078;11.650;2023-03-14T09:11:17;98292.28;;;12.52;81.28
14612;BME280;7392;52.078;11.650;2023-03-14T09:13:45;98306.38;;;12.54;80.22
14612;BME280;7392;52.078;11.650;2023-03-14T09:16:12;98298.66;;;12.48;79.19
14612;BME280;7392;52.078;11.650;2023-03-14T09:18:40;98301.56;;;12.44;77.35
14612;BME280;7392;52.078;11.650;2023-03-14T09:21:08;98299.06;;;12.41;77.16
14612;BME280;7392;52.078;11.650;2023-03-14T09:23:35;98309.84;;;12.38;77.81
14612;BME280;7392;52.078;11.650;2023-03-14T09:26:03;98294.78;;;12.37;77.55
14612;BME280;7392;52.078;11.650;2023-03-14T09:28:32;98300.22;;;12.35;78.33
14612;BME280;7392;52.078;11.650;2023-03-14T09:31:05;98302.78;;;12.37;79.04
14612;BME280;7392;52.078;11.650;2023-03-14T09:33:34;98304.38;;;12.41;78.55
14612;BME280;7392;52.078;11.650;2023-03-14T09:36:02;98308.75;;;12.42;78.67
14612;BME280;7392;52.078;11.650;2023-03-14T09:38:31;98314.00;;;12.43;78.78
14612;BME280;7392;52.078;11.650;2023-03-14T09:41:01;98311.06;;;12.49;78.58
14612;BME280;7392;52.078;11.650;2023-03-14T09:43:33;98308.31;;;12.51;78.11
14612;BME280;7392;52.078;11.650;2023-03-14T09:46:02;98309.03;;;12.54;78.59
14612;BME280;7392;52.078;11.650;2023-03-14T09:48:33;98304.34;;;12.60;79.85
14612;BME280;7392;52.078;11.650;2023-03-14T09:51:05;98314.78;;;12.64;76.26
14612;BME280;7392;52.078;11.650;2023-03-14T09:53:39;98312.31;;;12.60;76.04
14612;BME280;7392;52.078;11.650;2023-03-14T09:56:11;98336.28;;;12.60;76.83
14612;BME280;7392;52.078;11.650;2023-03-14T09:58:46;98321.97;;;12.62;78.02
14612;BME280;7392;52.078;11.650;2023-03-14T10:01:18;98307.34;;;12.71;79.37
14612;BME280;7392;52.078;11.650;2023-03-14T10:03:48;98332.34;;;12.86;79.60
14612;BME280;7392;52.078;11.650;2023-03-14T10:06:16;98324.63;;;12.99;78.80
14612;BME280;7392;52.078;11.650;2023-03-14T10:08:44;98311.69;;;13.08;78.46
14612;BME280;7392;52.078;11.650;2023-03-14T10:11:15;98326.44;;;13.16;78.13
14612;BME280;7392;52.078;11.650;2023-03-14T10:13:49;98315.78;;;13.16;76.47
14612;BME280;7392;52.078;11.650;2023-03-14T10:16:28;98307.53;;;13.20;76.95
14612;BME280;7392;52.078;11.650;2023-03-14T10:19:02;98309.88;;;13.26;77.28
14612;BME280;7392;52.078;11.650;2023-03-14T10:21:31;98310.66;;;13.28;76.54
14612;BME280;7392;52.078;11.650;2023-03-14T10:24:19;98307.88;;;13.32;77.49
14612;BME280;7392;52.078;11.650;2023-03-14T10:26:52;98310.94;;;13.41;77.27
14612;BME280;7392;52.078;11.650;2023-03-14T10:29:22;98310.59;;;13.47;77.44
14612;BME280;7392;52.078;11.650;2023-03-14T10:31:52;98306.59;;;13.56;76.05
14612;BME280;7392;52.078;11.650;2023-03-14T10:34:25;98311.53;;;13.80;76.93
14612;BME280;7392;52.078;11.650;2023-03-14T10:36:55;98308.66;;;14.00;74.62
14612;BME280;7392;52.078;11.650;2023-03-14T10:39:37;98313.16;;;14.00;74.28
14612;BME280;7392;52.078;11.650;2023-03-14T10:42:14;98309.94;;;13.93;72.84
14612;BME280;7392;52.078;11.650;2023-03-14T10:44:47;98313.13;;;13.84;73.88
14612;BME280;7392;52.078;11.650;2023-03-14T10:47:19;98313.91;;;13.86;73.90
14612;BME280;7392;52.078;11.650;2023-03-14T10:49:47;98314.06;;;13.83;71.91
14612;BME280;7392;52.078;11.650;2023-03-14T10:52:20;98313.38;;;13.79;73.40
14612;BME280;7392;52.078;11.650;2023-03-14T10:55:03;98310.31;;;13.70;72.85
14612;BME280;7392;52.078;11.650;2023-03-14T10:57:31;98319.44;;;13.65;73.49
14612;BME280;7392;52.078;11.650;2023-03-14T11:00:00;98315.13;;;13.63;74.58
14612;BME280;7392;52.078;11.650;2023-03-14T11:02:44;98316.84;;;13.64;75.22
14612;BME280;7392;52.078;11.650;2023-03-14T11:05:24;98336.56;;;13.61;74.36
14612;BME280;7392;52.078;11.650;2023-03-14T11:07:56;98333.97;;;13.60;73.88
14612;BME280;7392;52.078;11.650;2023-03-14T11:10:31;98314.69;;;13.55;74.84
14612;BME280;7392;52.078;11.650;2023-03-14T11:13:04;98339.75;;;13.51;74.57
14612;BME280;7392;52.078;11.650;2023-03-14T11:15:40;98324.97;;;13.45;73.99
14612;BME280;7392;52.078;11.650;2023-03-14T11:18:23;98322.78;;;13.36;74.21
14612;BME280;7392;52.078;11.650;2023-03-14T11:21:02;98322.19;;;13.29;74.53
14612;BME280;7392;52.078;11.650;2023-03-14T11:23:41;98323.91;;;13.30;76.55
14612;BME280;7392;52.078;11.650;2023-03-14T11:26:24;98320.13;;;13.36;76.01
14612;BME280;7392;52.078;11.650;2023-03-14T11:28:57;98315.41;;;13.41;76.21
14612;BME280;7392;52.078;11.650;2023-03-14T11:31:28;98314.69;;;13.55;76.32
14612;BME280;7392;52.078;11.650;2023-03-14T11:34:01;98315.22;;;13.61;75.58
14612;BME280;7392;52.078;11.650;2023-03-14T11:36:33;98323.03;;;13.64;74.45
14612;BME280;7392;52.078;11.650;2023-03-14T11:39:08;98312.75;;;13.74;74.56
14612;BME280;7392;52.078;11.650;2023-03-14T11:41:41;98310.38;;;13.86;75.58
14612;BME280;7392;52.078;11.650;2023-03-14T11:44:16;98318.25;;;14.05;74.15
14612;BME280;7392;52.078;11.650;2023-03-14T11:46:50;98298.19;;;14.29;75.09
14612;BME280;7392;52.078;11.650;2023-03-14T11:49:29;98314.31;;;14.44;72.07
14612;BME280;7392;52.078;11.650;2023-03-14T11:52:01;98305.00;;;14.51;71.12
14612;BME280;7392;52.078;11.650;2023-03-14T11:54:35;98306.16;;;14.63;72.07
14612;BME280;7392;52.078;11.650;2023-03-14T11:57:11;98310.44;;;14.65;72.11
14612;BME280;7392;52.078;11.650;2023-03-14T11:59:48;98311.41;;;14.64;72.09
14612;BME280;7392;52.078;11.650;2023-03-14T12:02:22;98311.78;;;14.56;71.44
14612;BME280;7392;52.078;11.650;2023-03-14T12:05:20;98314.91;;;14.49;71.41
14612;BME280;7392;52.078;11.650;2023-03-14T12:08:13;98304.13;;;14.34;70.96
14612;BME280;7392;52.078;11.650;2023-03-14T12:10:50;98300.78;;;14.31;72.19
14612;BME280;7392;52.078;11.650;2023-03-14T12:13:19;98311.63;;;14.28;72.75
14612;BME280;7392;52.078;11.650;2023-03-14T12:15:49;98293.22;;;14.23;73.45
14612;BME280;7392;52.078;11.650;2023-03-14T12:18:25;98298.88;;;14.17;72.34
14612;BME280;7392;52.078;11.650;2023-03-14T12:20:56;98292.78;;;14.15;71.99
14612;BME280;7392;52.078;11.650;2023-03-14T12:23:25;98287.34;;;14.16;72.58
14612;BME280;7392;52.078;11.650;2023-03-14T12:26:08;98293.97;;;14.25;72.35
14612;BME280;7392;52.078;11.650;2023-03-14T12:28:42;98287.34;;;14.32;72.09
14612;BME280;7392;52.078;11.650;2023-03-14T12:31:35;98281.38;;;14.43;72.51
14612;BME280;7392;52.078;11.650;2023-03-14T12:34:26;98280.03;;;14.52;71.37
14612;BME280;7392;52.078;11.650;2023-03-14T12:37:20;98276.66;;;14.48;71.93
14612;BME280;7392;52.078;11.650;2023-03-14T12:39:58;98275.78;;;14.48;72.11
14612;BME280;7392;52.078;11.650;2023-03-14T12:42:38;98275.88;;;14.46;72.14
14612;BME280;7392;52.078;11.650;2023-03-14T12:45:22;98270.91;;;14.40;72.61
14612;BME280;7392;52.078;11.650;2023-03-14T12:47:53;98258.75;;;14.34;73.27
14612;BME280;7392;52.078;11.650;2023-03-14T12:50:34;98262.63;;;14.29;71.73
14612;BME280;7392;52.078;11.650;2023-03-14T12:56:45;98257.09;;;14.16;73.28
14612;BME280;7392;52.078;11.650;2023-03-14T12:59:31;98263.41;;;14.15;73.01
14612;BME280;7392;52.078;11.650;2023-03-14T13:02:02;98266.41;;;14.09;73.36
14612;BME280;7392;52.078;11.650;2023-03-14T13:04:44;98265.97;;;14.00;73.61
14612;BME280;7392;52.078;11.650;2023-03-14T13:07:30;98264.88;;;13.89;75.75
14612;BME280;7392;52.078;11.650;2023-03-14T13:10:17;98259.31;;;13.76;77.34
14612;BME280;7392;52.078;11.650;2023-03-14T13:12:50;98258.03;;;13.67;78.21
14612;BME280;7392;52.078;11.650;2023-03-14T13:15:22;98268.22;;;13.59;78.20
14612;BME280;7392;52.078;11.650;2023-03-14T13:17:53;98263.31;;;13.51;77.52
14612;BME280;7392;52.078;11.650;2023-03-14T13:20:26;98264.56;;;13.44;77.15
14612;BME280;7392;52.078;11.650;2023-03-14T13:22:57;98258.69;;;13.37;80.90
14612;BME280;7392;52.078;11.650;2023-03-14T13:25:29;98253.06;;;13.26;83.84
14612;BME280;7392;52.078;11.650;2023-03-14T13:27:57;98255.19;;;13.19;84.55
14612;BME280;7392;52.078;11.650;2023-03-14T13:30:27;98259.97;;;13.13;85.79
14612;BME280;7392;52.078;11.650;2023-03-14T13:32:55;98272.59;;;13.09;82.31
14612;BME280;7392;52.078;11.650;2023-03-14T13:35:25;98254.41;;;13.00;81.47
14612;BME280;7392;52.078;11.650;2023-03-14T13:37:59;98265.31;;;12.95;81.00